sensor_id;sensor_type;location;lat;lon;timestamp;P1;durP1;ratioP1;P2;durP2;ratioP2
46415;SDS011;32620;51.704;7.822;2023-05-07T00:01:42;14.48;;;10.18;;
46415;SDS011;32620;51.704;7.822;2023-05-07T00:04:08;16.38;;;10.93;;
46415;SDS011;32620;51.704;7.822;2023-05-07T00:06:33;14.18;;;11.30;;
46415;SDS011;32620;51.704;7.822;2023-05-07T00:08:59;15.07;;;11.30;;
46415;SDS011;32620;51.704;7.822;2023-05-07T00:11:25;14.25;;;11.68;;
46415;SDS011;32620;51.704;7.822;2023-05-07T00:13:51;12.55;;;10.70;;
46415;SDS011;32620;51.704;7.822;2023-05-07T00:16:17;18.38;;;11.23;;
46415;SDS011;32620;51.704;7.822;2023-05-07T00:18:43;13.52;;;11.02;;
46415;SDS011;32620;51.704;7.822;2023-05-07T00:21:08;17.00;;;11.23;;
46415;SDS011;32620;51.704;7.822;2023-05-07T00:23:34;15.27;;;11.10;;
46415;SDS011;32620;51.704;7.822;2023-05-07T00:25:59;16.23;;;11.43;;
46415;SDS011;32620;51.704;7.822;2023-05-07T00:28:25;15.95;;;10.88;;
46415;SDS011;32620;51.704;7.822;2023-05-07T00:30:50;13.30;;;11.23;;
46415;SDS011;32620;51.704;7.822;2023-05-07T00:33:16;13.52;;;10.32;;
46415;SDS011;32620;51.704;7.822;2023-05-07T00:35:42;19.08;;;11.32;;
46415;SDS011;32620;51.704;7.822;2023-05-07T00:38:07;12.55;;;10.90;;
46415;SDS011;32620;51.704;7.822;2023-05-07T00:40:33;16.17;;;11.13;;
46415;SDS011;32620;51.704;7.822;2023-05-07T00:42:59;12.13;;;10.75;;
46415;SDS011;32620;51.704;7.822;2023-05-07T00:45:26;15.02;;;10.82;;
46415;SDS011;32620;51.704;7.822;2023-05-07T00:47:54;15.48;;;10.70;;
46415;SDS011;32620;51.704;7.822;2023-05-07T00:50:22;15.65;;;10.98;;
46415;SDS011;32620;51.704;7.822;2023-05-07T00:52:48;14.80;;;11.63;;
46415;SDS011;32620;51.704;7.822;2023-05-07T00:55:14;16.05;;;13.20;;
46415;SDS011;32620;51.704;7.822;2023-05-07T00:57:40;18.08;;;13.25;;
46415;SDS011;32620;51.704;7.822;2023-05-07T01:00:07;20.02;;;14.15;;
46415;SDS011;32620;51.704;7.822;2023-05-07T01:02:35;19.33;;;13.75;;
46415;SDS011;32620;51.704;7.822;2023-05-07T01:05:02;15.88;;;12.35;;
46415;SDS011;32620;51.704;7.822;2023-05-07T01:07:31;18.40;;;12.32;;
46415;SDS011;32620;51.704;7.822;2023-05-07T01:09:58;18.85;;;13.48;;
46415;SDS011;32620;51.704;7.822;2023-05-07T01:12:24;15.68;;;12.68;;
46415;SDS011;32620;51.704;7.822;2023-05-07T01:14:50;17.05;;;13.02;;
46415;SDS011;32620;51.704;7.822;2023-05-07T01:17:16;14.30;;;12.80;;
46415;SDS011;32620;51.704;7.822;2023-05-07T01:19:42;18.60;;;12.57;;
46415;SDS011;32620;51.704;7.822;2023-05-07T01:22:09;19.73;;;13.77;;
46415;SDS011;32620;51.704;7.822;2023-05-07T01:24:37;19.17;;;14.88;;
46415;SDS011;32620;51.704;7.822;2023-05-07T01:27:03;21.25;;;16.30;;
46415;SDS011;32620;51.704;7.822;2023-05-07T01:29:29;24.88;;;16.80;;
46415;SDS011;32620;51.704;7.822;2023-05-07T01:31:56;20.50;;;15.52;;
46415;SDS011;32620;51.704;7.822;2023-05-07T01:34:24;22.55;;;15.98;;
46415;SDS011;32620;51.704;7.822;2023-05-07T01:36:52;23.00;;;16.70;;
46415;SDS011;32620;51.704;7.822;2023-05-07T01:39:20;18.70;;;14.68;;
46415;SDS011;32620;51.704;7.822;2023-05-07T01:41:47;22.33;;;15.65;;
46415;SDS011;32620;51.704;7.822;2023-05-07T01:44:13;16.40;;;13.73;;
46415;SDS011;32620;51.704;7.822;2023-05-07T01:46:40;19.10;;;14.95;;
46415;SDS011;32620;51.704;7.822;2023-05-07T01:49:05;18.45;;;14.80;;
46415;SDS011;32620;51.704;7.822;2023-05-07T01:51:31;17.08;;;13.75;;
46415;SDS011;32620;51.704;7.822;2023-05-07T01:53:57;17.98;;;14.63;;
46415;SDS011;32620;51.704;7.822;2023-05-07T01:56:23;20.50;;;14.77;;
46415;SDS011;32620;51.704;7.822;2023-05-07T01:58:49;19.67;;;14.93;;
46415;SDS011;32620;51.704;7.822;2023-05-07T02:01:16;22.55;;;14.13;;
46415;SDS011;32620;51.704;7.822;2023-05-07T02:03:42;18.38;;;14.45;;
46415;SDS011;32620;51.704;7.822;2023-05-07T02:06:08;22.30;;;14.98;;
46415;SDS011;32620;51.704;7.822;2023-05-07T02:08:33;23.02;;;15.50;;
46415;SDS011;32620;51.704;7.822;2023-05-07T02:10:59;21.20;;;15.25;;
46415;SDS011;32620;51.704;7.822;2023-05-07T02:13:26;20.02;;;15.65;;
46415;SDS011;32620;51.704;7.822;2023-05-07T02:15:54;19.23;;;14.93;;
46415;SDS011;32620;51.704;7.822;2023-05-07T02:18:19;20.42;;;15.00;;
46415;SDS011;32620;51.704;7.822;2023-05-07T02:20:44;18.45;;;15.77;;
46415;SDS011;32620;51.704;7.822;2023-05-07T02:23:10;25.08;;;15.77;;
46415;SDS011;32620;51.704;7.822;2023-05-07T02:25:36;19.38;;;16.13;;
46415;SDS011;32620;51.704;7.822;2023-05-07T02:28:01;21.25;;;15.52;;
46415;SDS011;32620;51.704;7.822;2023-05-07T02:30:28;20.48;;;16.13;;
46415;SDS011;32620;51.704;7.822;2023-05-07T02:32:53;20.92;;;16.13;;
46415;SDS011;32620;51.704;7.822;2023-05-07T02:35:19;19.90;;;15.45;;
46415;SDS011;32620;51.704;7.822;2023-05-07T02:37:45;19.08;;;15.90;;
46415;SDS011;32620;51.704;7.822;2023-05-07T02:40:11;19.50;;;15.32;;
46415;SDS011;32620;51.704;7.822;2023-05-07T02:42:37;21.50;;;16.15;;
46415;SDS011;32620;51.704;7.822;2023-05-07T02:45:02;24.52;;;16.00;;
46415;SDS011;32620;51.704;7.822;2023-05-07T02:47:28;25.15;;;16.30;;
46415;SDS011;32620;51.704;7.822;2023-05-07T02:49:54;28.05;;;17.30;;
46415;SDS011;32620;51.704;7.822;2023-05-07T02:52:20;24.73;;;16.50;;
46415;SDS011;32620;51.704;7.822;2023-05-07T02:54:46;20.67;;;15.40;;
46415;SDS011;32620;51.704;7.822;2023-05-07T02:57:12;26.83;;;16.50;;
46415;SDS011;32620;51.704;7.822;2023-05-07T02:59:37;21.42;;;15.57;;
46415;SDS011;32620;51.704;7.822;2023-05-07T03:02:03;22.20;;;17.33;;
46415;SDS011;32620;51.704;7.822;2023-05-07T03:04:29;23.98;;;18.48;;
46415;SDS011;32620;51.704;7.822;2023-05-07T03:06:54;25.80;;;17.20;;
46415;SDS011;32620;51.704;7.822;2023-05-07T03:09:20;23.52;;;18.85;;
46415;SDS011;32620;51.704;7.822;2023-05-07T03:11:45;31.17;;;19.85;;
46415;SDS011;32620;51.704;7.822;2023-05-07T03:14:11;28.48;;;18.58;;
46415;SDS011;32620;51.704;7.822;2023-05-07T03:16:37;25.58;;;18.88;;
46415;SDS011;32620;51.704;7.822;2023-05-07T03:19:03;29.38;;;19.92;;
46415;SDS011;32620;51.704;7.822;2023-05-07T03:21:28;25.30;;;18.83;;
46415;SDS011;32620;51.704;7.822;2023-05-07T03:23:55;28.20;;;20.60;;
46415;SDS011;32620;51.704;7.822;2023-05-07T03:26:21;34.20;;;20.35;;
46415;SDS011;32620;51.704;7.822;2023-05-07T03:28:47;28.05;;;19.42;;
46415;SDS011;32620;51.704;7.822;2023-05-07T03:31:12;26.67;;;20.70;;
46415;SDS011;32620;51.704;7.822;2023-05-07T03:33:42;28.20;;;20.02;;
46415;SDS011;32620;51.704;7.822;2023-05-07T03:36:16;29.52;;;21.67;;
46415;SDS011;32620;51.704;7.822;2023-05-07T03:38:41;32.42;;;21.10;;
46415;SDS011;32620;51.704;7.822;2023-05-07T03:41:07;28.35;;;20.92;;
46415;SDS011;32620;51.704;7.822;2023-05-07T03:43:32;27.95;;;20.73;;
46415;SDS011;32620;51.704;7.822;2023-05-07T03:45:58;30.85;;;21.75;;
46415;SDS011;32620;51.704;7.822;2023-05-07T03:48:23;33.25;;;22.67;;
46415;SDS011;32620;51.704;7.822;2023-05-07T03:50:49;36.35;;;23.85;;
46415;SDS011;32620;51.704;7.822;2023-05-07T03:53:15;32.42;;;22.95;;
46415;SDS011;32620;51.704;7.822;2023-05-07T03:55:41;37.15;;;24.35;;
46415;SDS011;32620;51.704;7.822;2023-05-07T03:58:06;37.85;;;25.52;;
46415;SDS011;32620;51.704;7.822;2023-05-07T04:00:32;32.40;;;24.15;;
46415;SDS011;32620;51.704;7.822;2023-05-07T04:03:02;37.28;;;25.90;;
46415;SDS011;32620;51.704;7.822;2023-05-07T04:05:28;35.00;;;25.30;;
46415;SDS011;32620;51.704;7.822;2023-05-07T04:07:54;42.45;;;27.25;;
46415;SDS011;32620;51.704;7.822;2023-05-07T04:10:20;40.72;;;26.48;;
46415;SDS011;32620;51.704;7.822;2023-05-07T04:12:45;41.90;;;26.75;;
46415;SDS011;32620;51.704;7.822;2023-05-07T04:15:11;38.65;;;26.30;;
46415;SDS011;32620;51.704;7.822;2023-05-07T04:17:36;38.50;;;27.17;;
46415;SDS011;32620;51.704;7.822;2023-05-07T04:20:02;40.08;;;27.83;;
46415;SDS011;32620;51.704;7.822;2023-05-07T04:22:28;42.88;;;28.08;;
46415;SDS011;32620;51.704;7.822;2023-05-07T04:24:54;41.65;;;28.60;;
46415;SDS011;32620;51.704;7.822;2023-05-07T04:27:19;44.97;;;29.55;;
46415;SDS011;32620;51.704;7.822;2023-05-07T04:29:46;45.80;;;29.63;;
46415;SDS011;32620;51.704;7.822;2023-05-07T04:32:12;44.80;;;32.15;;
46415;SDS011;32620;51.704;7.822;2023-05-07T04:34:38;44.42;;;29.83;;
46415;SDS011;32620;51.704;7.822;2023-05-07T04:37:04;39.45;;;29.85;;
46415;SDS011;32620;51.704;7.822;2023-05-07T04:39:29;43.13;;;30.65;;
46415;SDS011;32620;51.704;7.822;2023-05-07T04:41:55;43.65;;;31.58;;
46415;SDS011;32620;51.704;7.822;2023-05-07T04:44:20;46.75;;;31.73;;
46415;SDS011;32620;51.704;7.822;2023-05-07T04:46:46;55.00;;;34.67;;
46415;SDS011;32620;51.704;7.822;2023-05-07T04:49:11;46.58;;;33.63;;
46415;SDS011;32620;51.704;7.822;2023-05-07T04:51:37;48.03;;;32.10;;
46415;SDS011;32620;51.704;7.822;2023-05-07T04:54:03;48.05;;;33.55;;
46415;SDS011;32620;51.704;7.822;2023-05-07T04:56:29;50.10;;;33.67;;
46415;SDS011;32620;51.704;7.822;2023-05-07T04:58:55;48.28;;;34.22;;
46415;SDS011;32620;51.704;7.822;2023-05-07T05:01:21;48.72;;;35.17;;
46415;SDS011;32620;51.704;7.822;2023-05-07T05:03:46;50.67;;;35.83;;
46415;SDS011;32620;51.704;7.822;2023-05-07T05:06:12;50.42;;;32.75;;
46415;SDS011;32620;51.704;7.822;2023-05-07T05:08:37;52.17;;;34.70;;
46415;SDS011;32620;51.704;7.822;2023-05-07T05:11:03;48.00;;;33.75;;
46415;SDS011;32620;51.704;7.822;2023-05-07T05:13:28;50.20;;;33.00;;
46415;SDS011;32620;51.704;7.822;2023-05-07T05:15:55;50.92;;;33.85;;
46415;SDS011;32620;51.704;7.822;2023-05-07T05:18:21;44.88;;;32.55;;
46415;SDS011;32620;51.704;7.822;2023-05-07T05:20:46;45.17;;;32.15;;
46415;SDS011;32620;51.704;7.822;2023-05-07T05:23:12;47.35;;;33.03;;
46415;SDS011;32620;51.704;7.822;2023-05-07T05:25:38;45.15;;;34.13;;
46415;SDS011;32620;51.704;7.822;2023-05-07T05:28:05;43.42;;;32.72;;
46415;SDS011;32620;51.704;7.822;2023-05-07T05:30:31;44.33;;;33.03;;
46415;SDS011;32620;51.704;7.822;2023-05-07T05:32:56;40.92;;;31.08;;
46415;SDS011;32620;51.704;7.822;2023-05-07T05:35:22;42.85;;;30.10;;
46415;SDS011;32620;51.704;7.822;2023-05-07T05:37:47;38.95;;;30.13;;
46415;SDS011;32620;51.704;7.822;2023-05-07T05:40:13;38.13;;;28.67;;
46415;SDS011;32620;51.704;7.822;2023-05-07T05:42:39;38.20;;;28.73;;
46415;SDS011;32620;51.704;7.822;2023-05-07T05:45:07;37.42;;;28.55;;
46415;SDS011;32620;51.704;7.822;2023-05-07T05:47:33;39.58;;;27.88;;
46415;SDS011;32620;51.704;7.822;2023-05-07T05:49:59;36.35;;;27.88;;
46415;SDS011;32620;51.704;7.822;2023-05-07T05:52:24;36.53;;;28.23;;
46415;SDS011;32620;51.704;7.822;2023-05-07T05:54:50;38.58;;;27.90;;
46415;SDS011;32620;51.704;7.822;2023-05-07T05:57:16;40.08;;;28.15;;
46415;SDS011;32620;51.704;7.822;2023-05-07T05:59:41;33.72;;;25.88;;
46415;SDS011;32620;51.704;7.822;2023-05-07T06:02:07;35.63;;;26.88;;
46415;SDS011;32620;51.704;7.822;2023-05-07T06:04:33;33.67;;;25.95;;
46415;SDS011;32620;51.704;7.822;2023-05-07T06:06:59;31.75;;;24.85;;
46415;SDS011;32620;51.704;7.822;2023-05-07T06:09:24;31.92;;;24.38;;
46415;SDS011;32620;51.704;7.822;2023-05-07T06:11:50;30.52;;;22.60;;
46415;SDS011;32620;51.704;7.822;2023-05-07T06:14:15;31.45;;;24.40;;
46415;SDS011;32620;51.704;7.822;2023-05-07T06:16:41;32.33;;;24.63;;
46415;SDS011;32620;51.704;7.822;2023-05-07T06:19:06;30.88;;;24.27;;
46415;SDS011;32620;51.704;7.822;2023-05-07T06:21:32;33.17;;;24.30;;
46415;SDS011;32620;51.704;7.822;2023-05-07T06:23:58;29.02;;;24.45;;
46415;SDS011;32620;51.704;7.822;2023-05-07T06:26:23;29.90;;;24.80;;
46415;SDS011;32620;51.704;7.822;2023-05-07T06:28:50;36.22;;;24.90;;
46415;SDS011;32620;51.704;7.822;2023-05-07T06:31:16;34.05;;;25.05;;
46415;SDS011;32620;51.704;7.822;2023-05-07T06:33:47;32.63;;;25.55;;
46415;SDS011;32620;51.704;7.822;2023-05-07T06:36:14;37.30;;;26.10;;
46415;SDS011;32620;51.704;7.822;2023-05-07T06:38:40;36.80;;;27.75;;
46415;SDS011;32620;51.704;7.822;2023-05-07T06:41:06;34.88;;;27.40;;
46415;SDS011;32620;51.704;7.822;2023-05-07T06:43:31;35.78;;;27.13;;
46415;SDS011;32620;51.704;7.822;2023-05-07T06:45:57;37.00;;;26.83;;
46415;SDS011;32620;51.704;7.822;2023-05-07T06:48:23;36.45;;;27.73;;
46415;SDS011;32620;51.704;7.822;2023-05-07T06:50:49;34.33;;;27.75;;
46415;SDS011;32620;51.704;7.822;2023-05-07T06:53:16;36.22;;;27.17;;
46415;SDS011;32620;51.704;7.822;2023-05-07T06:55:41;35.78;;;26.92;;
46415;SDS011;32620;51.704;7.822;2023-05-07T06:58:07;36.45;;;28.05;;
46415;SDS011;32620;51.704;7.822;2023-05-07T07:00:32;36.13;;;26.60;;
46415;SDS011;32620;51.704;7.822;2023-05-07T07:02:58;34.85;;;26.25;;
46415;SDS011;32620;51.704;7.822;2023-05-07T07:05:25;40.03;;;26.23;;
46415;SDS011;32620;51.704;7.822;2023-05-07T07:07:50;36.05;;;27.20;;
46415;SDS011;32620;51.704;7.822;2023-05-07T07:10:19;35.10;;;26.15;;
46415;SDS011;32620;51.704;7.822;2023-05-07T07:12:48;34.22;;;25.63;;
46415;SDS011;32620;51.704;7.822;2023-05-07T07:15:14;38.28;;;26.90;;
46415;SDS011;32620;51.704;7.822;2023-05-07T07:17:41;34.80;;;26.48;;
46415;SDS011;32620;51.704;7.822;2023-05-07T07:20:06;34.20;;;25.98;;
46415;SDS011;32620;51.704;7.822;2023-05-07T07:22:33;35.65;;;26.17;;
46415;SDS011;32620;51.704;7.822;2023-05-07T07:24:58;37.10;;;27.05;;
46415;SDS011;32620;51.704;7.822;2023-05-07T07:27:24;33.97;;;25.52;;
46415;SDS011;32620;51.704;7.822;2023-05-07T07:29:50;33.05;;;25.40;;
46415;SDS011;32620;51.704;7.822;2023-05-07T07:32:16;35.42;;;26.23;;
46415;SDS011;32620;51.704;7.822;2023-05-07T07:34:42;35.88;;;26.40;;
46415;SDS011;32620;51.704;7.822;2023-05-07T07:37:08;34.60;;;25.83;;
46415;SDS011;32620;51.704;7.822;2023-05-07T07:39:33;38.88;;;26.70;;
46415;SDS011;32620;51.704;7.822;2023-05-07T07:41:59;33.67;;;25.00;;
46415;SDS011;32620;51.704;7.822;2023-05-07T07:44:27;28.88;;;24.58;;
46415;SDS011;32620;51.704;7.822;2023-05-07T07:46:53;33.60;;;25.52;;
46415;SDS011;32620;51.704;7.822;2023-05-07T07:49:18;36.50;;;26.65;;
46415;SDS011;32620;51.704;7.822;2023-05-07T07:51:44;32.03;;;24.65;;
46415;SDS011;32620;51.704;7.822;2023-05-07T07:54:10;31.20;;;24.13;;
46415;SDS011;32620;51.704;7.822;2023-05-07T07:56:36;31.90;;;25.20;;
46415;SDS011;32620;51.704;7.822;2023-05-07T07:59:01;29.55;;;23.35;;
46415;SDS011;32620;51.704;7.822;2023-05-07T08:01:28;32.85;;;24.15;;
46415;SDS011;32620;51.704;7.822;2023-05-07T08:03:55;30.23;;;24.27;;
46415;SDS011;32620;51.704;7.822;2023-05-07T08:06:22;36.53;;;25.48;;
46415;SDS011;32620;51.704;7.822;2023-05-07T08:08:48;31.58;;;24.98;;
46415;SDS011;32620;51.704;7.822;2023-05-07T08:11:14;30.30;;;23.98;;
46415;SDS011;32620;51.704;7.822;2023-05-07T08:13:39;30.80;;;24.27;;
46415;SDS011;32620;51.704;7.822;2023-05-07T08:16:05;31.05;;;23.58;;
46415;SDS011;32620;51.704;7.822;2023-05-07T08:18:31;32.50;;;24.65;;
46415;SDS011;32620;51.704;7.822;2023-05-07T08:20:56;32.67;;;25.17;;
46415;SDS011;32620;51.704;7.822;2023-05-07T08:23:22;33.45;;;23.27;;
46415;SDS011;32620;51.704;7.822;2023-05-07T08:25:48;33.30;;;23.73;;
46415;SDS011;32620;51.704;7.822;2023-05-07T08:28:14;32.03;;;24.63;;
46415;SDS011;32620;51.704;7.822;2023-05-07T08:30:40;31.88;;;23.45;;
46415;SDS011;32620;51.704;7.822;2023-05-07T08:33:06;31.02;;;22.90;;
46415;SDS011;32620;51.704;7.822;2023-05-07T08:35:33;29.58;;;23.25;;
46415;SDS011;32620;51.704;7.822;2023-05-07T08:37:59;28.85;;;22.38;;
46415;SDS011;32620;51.704;7.822;2023-05-07T08:40:24;24.63;;;21.17;;
46415;SDS011;32620;51.704;7.822;2023-05-07T08:42:52;25.30;;;20.52;;
46415;SDS011;32620;51.704;7.822;2023-05-07T08:45:18;25.00;;;20.58;;
46415;SDS011;32620;51.704;7.822;2023-05-07T08:47:47;23.27;;;20.45;;
46415;SDS011;32620;51.704;7.822;2023-05-07T08:50:17;25.73;;;19.45;;
46415;SDS011;32620;51.704;7.822;2023-05-07T08:52:44;25.10;;;21.00;;
46415;SDS011;32620;51.704;7.822;2023-05-07T08:55:10;24.35;;;21.45;;
46415;SDS011;32620;51.704;7.822;2023-05-07T08:57:37;24.13;;;19.63;;
46415;SDS011;32620;51.704;7.822;2023-05-07T09:00:03;26.75;;;21.65;;
46415;SDS011;32620;51.704;7.822;2023-05-07T09:02:32;26.25;;;20.65;;
46415;SDS011;32620;51.704;7.822;2023-05-07T09:04:59;25.98;;;21.15;;
46415;SDS011;32620;51.704;7.822;2023-05-07T09:07:25;26.13;;;20.83;;
46415;SDS011;32620;51.704;7.822;2023-05-07T09:09:51;25.63;;;20.48;;
46415;SDS011;32620;51.704;7.822;2023-05-07T09:12:18;24.77;;;20.05;;
46415;SDS011;32620;51.704;7.822;2023-05-07T09:14:44;26.50;;;19.55;;
46415;SDS011;32620;51.704;7.822;2023-05-07T09:17:10;23.52;;;19.13;;
46415;SDS011;32620;51.704;7.822;2023-05-07T09:19:36;25.00;;;19.58;;
46415;SDS011;32620;51.704;7.822;2023-05-07T09:22:02;23.70;;;20.27;;
46415;SDS011;32620;51.704;7.822;2023-05-07T09:24:30;23.85;;;20.40;;
46415;SDS011;32620;51.704;7.822;2023-05-07T09:27:00;22.02;;;19.50;;
46415;SDS011;32620;51.704;7.822;2023-05-07T09:29:26;21.63;;;18.30;;
46415;SDS011;32620;51.704;7.822;2023-05-07T09:31:54;19.92;;;17.77;;
46415;SDS011;32620;51.704;7.822;2023-05-07T09:34:20;23.15;;;20.17;;
46415;SDS011;32620;51.704;7.822;2023-05-07T09:36:46;24.48;;;18.95;;
46415;SDS011;32620;51.704;7.822;2023-05-07T09:39:12;21.30;;;18.27;;
46415;SDS011;32620;51.704;7.822;2023-05-07T09:41:46;25.73;;;18.88;;
46415;SDS011;32620;51.704;7.822;2023-05-07T09:44:12;22.17;;;18.23;;
46415;SDS011;32620;51.704;7.822;2023-05-07T09:46:39;22.33;;;18.48;;
46415;SDS011;32620;51.704;7.822;2023-05-07T09:49:07;23.95;;;19.60;;
46415;SDS011;32620;51.704;7.822;2023-05-07T09:51:51;24.90;;;20.58;;
46415;SDS011;32620;51.704;7.822;2023-05-07T09:54:17;26.60;;;19.85;;
46415;SDS011;32620;51.704;7.822;2023-05-07T09:56:44;23.48;;;17.92;;
46415;SDS011;32620;51.704;7.822;2023-05-07T09:59:12;19.58;;;17.02;;
46415;SDS011;32620;51.704;7.822;2023-05-07T10:01:41;19.95;;;17.85;;
46415;SDS011;32620;51.704;7.822;2023-05-07T10:04:07;22.45;;;18.65;;
46415;SDS011;32620;51.704;7.822;2023-05-07T10:06:34;23.23;;;18.45;;
46415;SDS011;32620;51.704;7.822;2023-05-07T10:09:00;21.48;;;17.73;;
46415;SDS011;32620;51.704;7.822;2023-05-07T10:11:27;21.02;;;18.63;;
46415;SDS011;32620;51.704;7.822;2023-05-07T10:13:53;23.92;;;19.70;;
46415;SDS011;32620;51.704;7.822;2023-05-07T10:16:20;25.30;;;18.95;;
46415;SDS011;32620;51.704;7.822;2023-05-07T10:18:46;20.95;;;18.33;;
46415;SDS011;32620;51.704;7.822;2023-05-07T10:21:17;20.00;;;17.60;;
46415;SDS011;32620;51.704;7.822;2023-05-07T10:23:44;19.55;;;16.80;;
46415;SDS011;32620;51.704;7.822;2023-05-07T10:26:15;18.05;;;15.93;;
46415;SDS011;32620;51.704;7.822;2023-05-07T10:28:43;20.83;;;17.73;;
46415;SDS011;32620;51.704;7.822;2023-05-07T10:31:15;20.25;;;15.50;;
46415;SDS011;32620;51.704;7.822;2023-05-07T10:34:02;18.48;;;16.27;;
46415;SDS011;32620;51.704;7.822;2023-05-07T10:36:35;18.85;;;15.90;;
46415;SDS011;32620;51.704;7.822;2023-05-07T10:39:02;18.88;;;15.40;;
46415;SDS011;32620;51.704;7.822;2023-05-07T10:41:28;19.90;;;16.67;;
46415;SDS011;32620;51.704;7.822;2023-05-07T10:43:53;17.08;;;15.38;;
46415;SDS011;32620;51.704;7.822;2023-05-07T10:46:20;17.85;;;14.23;;
46415;SDS011;32620;51.704;7.822;2023-05-07T10:51:39;18.35;;;16.25;;
46415;SDS011;32620;51.704;7.822;2023-05-07T10:56:44;19.58;;;15.48;;
46415;SDS011;32620;51.704;7.822;2023-05-07T10:59:40;18.75;;;14.32;;
46415;SDS011;32620;51.704;7.822;2023-05-07T11:01:57;17.10;;;15.30;;
46415;SDS011;32620;51.704;7.822;2023-05-07T11:04:29;16.70;;;13.77;;
46415;SDS011;32620;51.704;7.822;2023-05-07T11:07:18;22.08;;;17.35;;
46415;SDS011;32620;51.704;7.822;2023-05-07T11:15:13;18.17;;;14.82;;
46415;SDS011;32620;51.704;7.822;2023-05-07T11:17:58;16.40;;;14.70;;
46415;SDS011;32620;51.704;7.822;2023-05-07T11:20:56;19.52;;;15.85;;
46415;SDS011;32620;51.704;7.822;2023-05-07T11:23:54;17.90;;;14.23;;
46415;SDS011;32620;51.704;7.822;2023-05-07T11:26:06;16.67;;;14.82;;
46415;SDS011;32620;51.704;7.822;2023-05-07T11:28:36;18.30;;;14.18;;
46415;SDS011;32620;51.704;7.822;2023-05-07T11:31:03;16.77;;;14.43;;
46415;SDS011;32620;51.704;7.822;2023-05-07T11:33:30;19.85;;;15.25;;
46415;SDS011;32620;51.704;7.822;2023-05-07T11:35:56;17.25;;;13.70;;
46415;SDS011;32620;51.704;7.822;2023-05-07T11:38:22;19.73;;;15.25;;
46415;SDS011;32620;51.704;7.822;2023-05-07T11:40:49;18.67;;;15.45;;
46415;SDS011;32620;51.704;7.822;2023-05-07T11:43:15;16.23;;;13.50;;
46415;SDS011;32620;51.704;7.822;2023-05-07T11:45:41;14.32;;;12.73;;
46415;SDS011;32620;51.704;7.822;2023-05-07T11:48:06;14.20;;;11.10;;
46415;SDS011;32620;51.704;7.822;2023-05-07T11:50:32;12.40;;;10.60;;
46415;SDS011;32620;51.704;7.822;2023-05-07T11:52:58;14.02;;;11.40;;
46415;SDS011;32620;51.704;7.822;2023-05-07T11:55:23;13.15;;;10.70;;
46415;SDS011;32620;51.704;7.822;2023-05-07T11:57:51;15.38;;;12.52;;
46415;SDS011;32620;51.704;7.822;2023-05-07T12:00:17;14.55;;;12.70;;
46415;SDS011;32620;51.704;7.822;2023-05-07T12:02:43;18.48;;;13.10;;
46415;SDS011;32620;51.704;7.822;2023-05-07T12:05:10;17.90;;;14.25;;
46415;SDS011;32620;51.704;7.822;2023-05-07T12:07:35;15.00;;;11.45;;
46415;SDS011;32620;51.704;7.822;2023-05-07T12:10:05;11.75;;;10.20;;
46415;SDS011;32620;51.704;7.822;2023-05-07T12:12:37;15.55;;;10.90;;
46415;SDS011;32620;51.704;7.822;2023-05-07T12:15:03;12.07;;;10.85;;
46415;SDS011;32620;51.704;7.822;2023-05-07T12:17:30;15.43;;;12.98;;
46415;SDS011;32620;51.704;7.822;2023-05-07T12:19:56;14.00;;;12.50;;
46415;SDS011;32620;51.704;7.822;2023-05-07T12:22:21;15.75;;;10.35;;
46415;SDS011;32620;51.704;7.822;2023-05-07T12:24:48;13.60;;;10.27;;
46415;SDS011;32620;51.704;7.822;2023-05-07T12:27:15;13.85;;;11.68;;
46415;SDS011;32620;51.704;7.822;2023-05-07T12:29:48;13.70;;;10.75;;
46415;SDS011;32620;51.704;7.822;2023-05-07T12:32:18;14.23;;;11.45;;
46415;SDS011;32620;51.704;7.822;2023-05-07T12:34:45;12.85;;;9.93;;
46415;SDS011;32620;51.704;7.822;2023-05-07T12:37:14;14.05;;;11.38;;
46415;SDS011;32620;51.704;7.822;2023-05-07T12:39:47;15.18;;;11.75;;
46415;SDS011;32620;51.704;7.822;2023-05-07T12:42:15;12.80;;;11.50;;
46415;SDS011;32620;51.704;7.822;2023-05-07T12:44:41;13.95;;;11.20;;
46415;SDS011;32620;51.704;7.822;2023-05-07T12:47:11;11.18;;;8.95;;
46415;SDS011;32620;51.704;7.822;2023-05-07T12:49:37;12.85;;;10.68;;
46415;SDS011;32620;51.704;7.822;2023-05-07T12:52:04;12.40;;;10.43;;
46415;SDS011;32620;51.704;7.822;2023-05-07T12:54:31;12.15;;;10.82;;
46415;SDS011;32620;51.704;7.822;2023-05-07T12:57:00;15.77;;;11.38;;
46415;SDS011;32620;51.704;7.822;2023-05-07T12:59:35;14.07;;;11.02;;
46415;SDS011;32620;51.704;7.822;2023-05-07T13:02:02;15.20;;;10.18;;
46415;SDS011;32620;51.704;7.822;2023-05-07T13:04:28;14.27;;;12.60;;
46415;SDS011;32620;51.704;7.822;2023-05-07T13:06:53;13.98;;;11.60;;
46415;SDS011;32620;51.704;7.822;2023-05-07T13:09:19;12.85;;;10.82;;
46415;SDS011;32620;51.704;7.822;2023-05-07T13:11:45;12.95;;;10.43;;
46415;SDS011;32620;51.704;7.822;2023-05-07T13:14:10;14.80;;;10.50;;
46415;SDS011;32620;51.704;7.822;2023-05-07T13:16:36;12.10;;;10.70;;
46415;SDS011;32620;51.704;7.822;2023-05-07T13:19:02;12.20;;;10.65;;
46415;SDS011;32620;51.704;7.822;2023-05-07T13:21:27;12.93;;;10.60;;
46415;SDS011;32620;51.704;7.822;2023-05-07T13:23:53;14.02;;;12.00;;
46415;SDS011;32620;51.704;7.822;2023-05-07T13:26:19;14.52;;;11.40;;
46415;SDS011;32620;51.704;7.822;2023-05-07T13:28:45;14.95;;;11.15;;
46415;SDS011;32620;51.704;7.822;2023-05-07T13:31:11;17.98;;;10.65;;
46415;SDS011;32620;51.704;7.822;2023-05-07T13:33:36;12.15;;;10.45;;
46415;SDS011;32620;51.704;7.822;2023-05-07T13:36:02;14.02;;;10.07;;
46415;SDS011;32620;51.704;7.822;2023-05-07T13:38:30;9.95;;;8.80;;
46415;SDS011;32620;51.704;7.822;2023-05-07T13:40:56;14.43;;;9.63;;
46415;SDS011;32620;51.704;7.822;2023-05-07T13:43:21;11.95;;;9.57;;
46415;SDS011;32620;51.704;7.822;2023-05-07T13:45:47;10.70;;;9.55;;
46415;SDS011;32620;51.704;7.822;2023-05-07T13:48:13;10.95;;;9.85;;
46415;SDS011;32620;51.704;7.822;2023-05-07T13:50:38;11.55;;;10.13;;
46415;SDS011;32620;51.704;7.822;2023-05-07T13:53:04;12.52;;;9.30;;
46415;SDS011;32620;51.704;7.822;2023-05-07T13:55:30;10.25;;;8.93;;
46415;SDS011;32620;51.704;7.822;2023-05-07T13:57:56;10.57;;;8.95;;
46415;SDS011;32620;51.704;7.822;2023-05-07T14:00:23;10.07;;;8.95;;
46415;SDS011;32620;51.704;7.822;2023-05-07T14:02:49;10.15;;;8.32;;
46415;SDS011;32620;51.704;7.822;2023-05-07T14:05:15;10.65;;;8.65;;
46415;SDS011;32620;51.704;7.822;2023-05-07T14:07:41;10.00;;;9.00;;
46415;SDS011;32620;51.704;7.822;2023-05-07T14:10:06;12.80;;;9.52;;
46415;SDS011;32620;51.704;7.822;2023-05-07T14:12:32;12.15;;;9.70;;
46415;SDS011;32620;51.704;7.822;2023-05-07T14:14:58;10.63;;;9.30;;
46415;SDS011;32620;51.704;7.822;2023-05-07T14:17:27;10.85;;;9.55;;
46415;SDS011;32620;51.704;7.822;2023-05-07T14:19:53;12.40;;;9.82;;
46415;SDS011;32620;51.704;7.822;2023-05-07T14:22:20;11.88;;;10.13;;
46415;SDS011;32620;51.704;7.822;2023-05-07T14:24:46;11.88;;;9.80;;
46415;SDS011;32620;51.704;7.822;2023-05-07T14:27:12;11.80;;;9.95;;
46415;SDS011;32620;51.704;7.822;2023-05-07T14:29:38;11.68;;;10.50;;
46415;SDS011;32620;51.704;7.822;2023-05-07T14:32:04;11.57;;;10.25;;